Tropical Cyclones
[Index]
Main Index Home Page Stock Weather Photos Extreme Storms Discussion Storm News and Storm Chasing Reports Tropical Cyclones / Hurricanes / Typhoons Weather Data and Links Wild Fires / Bushfires Weather Observation Techniques Weather Picture Catalogue Tornado Pictures and Reports Stock Video Footage and DVDs for sale
Season 1984-1985 Tropical Cyclone TANYA Track Map
Season 1984-1985 Summaries: [BoM-AU] [JTWC-AU] [JTWC-SIO] [JTWC-SPAC] [JTWC-SH]
<<- Previous TC | BoM 1984-1985 Season | Next TC ->>

click for intensity scale information  Lat/long Grid: Show Hide

 Date Labels: Show Hide

Bureau of Meteorology Tropical Cyclone Data

Name: TANYA
Number: 677 / 198485_15

27 Mar 1985 06:00 UTC to 01 Apr 1985 18:00 UTC

    date/time    lat    long    hPa   cat  kts
1985-03-27 06   13.2   151.5   1003                     
1985-03-27 12   13.1   151.4   1003                     
1985-03-27 18   13.0   151.2   1003                     
1985-03-28 00   12.9   151.0   1002                     
1985-03-28 06   12.8   150.8   1000                     
1985-03-28 12   12.9   150.6   1000                     
1985-03-28 18   12.9   150.2   1000                     
1985-03-29 00   13.2   149.8    999                     
1985-03-29 06   13.4   149.3    995    1                
1985-03-29 12   13.6   148.8    993    1                
1985-03-29 18   13.8   148.3    990    1                
1985-03-30 00   13.8   147.8    986    1                
1985-03-30 06   13.7   147.4    982    2                
1985-03-30 12   13.6   146.9    982    2                
1985-03-30 18   13.5   146.5    982    2                
1985-03-31 00   13.3   145.9    982    2                
1985-03-31 06   13.2   145.3    982    2                
1985-03-31 12   13.2   144.9    986    1                
1985-03-31 18   13.5   144.4    990    1                
1985-04-01 00   13.9   144.0    995    1                
1985-04-01 06   14.4   143.6    999                     
1985-04-01 09   14.6   143.4   1000                     
1985-04-01 12   14.8   143.2   1001                     
1985-04-01 18   15.2   142.8   1003                     
Winds are 10-min average.

Tropical cyclone tracks developed by Michael Bath using data from the Bureau of Meteorology and Google Maps.


[Australian Severe Weather index] [Copyright Notice] [Email Contacts] [Search This Site] [Privacy Policy]
Document: tropical_cyclone_tanya.htm Updated: 30 May 2013